TimeEST,TemperatureF,Dew PointF,Humidity,Sea Level PressureIn,VisibilityMPH,Wind Direction,Wind SpeedMPH,Gust SpeedMPH,PrecipitationIn,Events,Conditions,WindDirDegrees,DateUTC
12:15 AM,33.8,23.0,65,30.32,10.0,Calm,Calm,-,N/A,,Clear,0,2013-12-27 05:15:00
12:35 AM,33.8,23.0,65,30.32,10.0,Calm,Calm,-,N/A,,Clear,0,2013-12-27 05:35:00
12:55 AM,32.0,23.0,69,30.32,10.0,Calm,Calm,-,N/A,,Clear,0,2013-12-27 05:55:00
1:15 AM,32.0,23.0,69,30.32,10.0,NE,3.5,-,N/A,,Clear,40,2013-12-27 06:15:00
1:35 AM,32.0,23.0,69,30.32,10.0,Calm,Calm,-,N/A,,Clear,0,2013-12-27 06:35:00
1:55 AM,30.2,23.0,75,30.32,10.0,Calm,Calm,-,N/A,,Clear,0,2013-12-27 06:55:00
2:15 AM,28.4,23.0,80,30.33,10.0,Calm,Calm,-,N/A,,Clear,0,2013-12-27 07:15:00
2:35 AM,30.2,23.0,75,30.33,10.0,Calm,Calm,-,N/A,,Clear,0,2013-12-27 07:35:00
2:55 AM,30.2,23.0,75,30.33,10.0,Calm,Calm,-,N/A,,Clear,0,2013-12-27 07:55:00
3:15 AM,30.2,23.0,75,30.34,10.0,Calm,Calm,-,N/A,,Clear,0,2013-12-27 08:15:00
3:35 AM,30.2,23.0,75,30.34,10.0,Calm,Calm,-,N/A,,Clear,0,2013-12-27 08:35:00
3:55 AM,28.4,23.0,80,30.35,10.0,North,3.5,-,N/A,,Clear,10,2013-12-27 08:55:00
4:15 AM,30.2,23.0,75,30.35,10.0,NNE,3.5,-,N/A,,Clear,30,2013-12-27 09:15:00
4:35 AM,30.2,23.0,75,30.35,10.0,Calm,Calm,-,N/A,,Clear,0,2013-12-27 09:35:00
4:55 AM,28.4,21.2,74,30.35,10.0,Calm,Calm,-,N/A,,Clear,0,2013-12-27 09:55:00
5:15 AM,28.4,23.0,80,30.35,10.0,Calm,Calm,-,N/A,,Clear,0,2013-12-27 10:15:00
5:35 AM,28.4,23.0,80,30.35,10.0,Calm,Calm,-,N/A,,Clear,0,2013-12-27 10:35:00
5:55 AM,28.4,23.0,80,30.36,10.0,Calm,Calm,-,N/A,,Clear,0,2013-12-27 10:55:00
6:15 AM,28.4,23.0,80,30.37,10.0,NE,3.5,-,N/A,,Clear,40,2013-12-27 11:15:00
6:35 AM,28.4,24.8,86,30.37,10.0,ENE,4.6,-,N/A,,Clear,60,2013-12-27 11:35:00
6:55 AM,30.2,21.2,69,30.38,10.0,NE,3.5,-,N/A,,Clear,40,2013-12-27 11:55:00
7:15 AM,32.0,21.2,64,30.40,10.0,Calm,Calm,-,N/A,,Clear,0,2013-12-27 12:15:00
7:35 AM,32.0,21.2,64,30.40,10.0,Calm,Calm,-,N/A,,Clear,0,2013-12-27 12:35:00
7:55 AM,32.0,21.2,64,30.42,10.0,Calm,Calm,-,N/A,,Clear,0,2013-12-27 12:55:00
8:15 AM,32.0,21.2,64,30.42,10.0,Calm,Calm,-,N/A,,Clear,0,2013-12-27 13:15:00
8:35 AM,33.8,21.2,60,30.42,10.0,ENE,3.5,-,N/A,,Clear,70,2013-12-27 13:35:00
8:55 AM,33.8,21.2,60,30.43,10.0,Calm,Calm,-,N/A,,Clear,0,2013-12-27 13:55:00
9:15 AM,35.6,21.2,56,30.43,10.0,Calm,Calm,-,N/A,,Clear,0,2013-12-27 14:15:00
9:35 AM,35.6,21.2,56,30.44,10.0,Calm,Calm,-,N/A,,Clear,0,2013-12-27 14:35:00
9:55 AM,37.4,21.2,52,30.45,10.0,ENE,3.5,-,N/A,,Clear,70,2013-12-27 14:55:00
10:15 AM,41.0,19.4,42,30.46,10.0,East,4.6,-,N/A,,Clear,80,2013-12-27 15:15:00
10:35 AM,42.8,17.6,36,30.46,10.0,East,5.8,-,N/A,,Clear,80,2013-12-27 15:35:00
10:55 AM,44.6,14.0,29,30.45,10.0,East,9.2,-,N/A,,Clear,80,2013-12-27 15:55:00
11:15 AM,46.4,10.4,23,30.45,10.0,ENE,6.9,-,N/A,,Clear,70,2013-12-27 16:15:00
11:35 AM,46.4,12.2,25,30.44,10.0,East,3.5,-,N/A,,Clear,80,2013-12-27 16:35:00
11:55 AM,48.2,10.4,22,30.43,10.0,East,6.9,-,N/A,,Clear,100,2013-12-27 16:55:00
12:15 PM,48.2,10.4,22,30.43,10.0,East,8.1,-,N/A,,Clear,80,2013-12-27 17:15:00
12:35 PM,50.0,12.2,22,30.42,10.0,East,3.5,-,N/A,,Clear,80,2013-12-27 17:35:00
12:55 PM,50.0,12.2,22,30.41,10.0,ENE,4.6,-,N/A,,Clear,60,2013-12-27 17:55:00
1:15 PM,50.0,12.2,22,30.40,10.0,SE,4.6,-,N/A,,Clear,140,2013-12-27 18:15:00
1:35 PM,50.0,12.2,22,30.39,10.0,ESE,3.5,-,N/A,,Clear,110,2013-12-27 18:35:00
1:55 PM,51.8,12.2,21,30.38,10.0,SE,4.6,-,N/A,,Clear,140,2013-12-27 18:55:00
2:15 PM,51.8,12.2,21,30.37,10.0,SSE,4.6,-,N/A,,Clear,150,2013-12-27 19:15:00
2:35 PM,51.8,12.2,21,30.37,10.0,Calm,Calm,-,N/A,,Clear,0,2013-12-27 19:35:00
2:55 PM,51.8,12.2,21,30.37,10.0,Calm,Calm,-,N/A,,Clear,0,2013-12-27 19:55:00
3:15 PM,51.8,12.2,21,30.37,10.0,Calm,Calm,-,N/A,,Clear,0,2013-12-27 20:15:00
3:35 PM,51.8,12.2,21,30.38,10.0,Calm,Calm,-,N/A,,Clear,0,2013-12-27 20:35:00
3:55 PM,51.8,14.0,22,30.38,10.0,Calm,Calm,-,N/A,,Clear,0,2013-12-27 20:55:00
4:15 PM,51.8,12.2,21,30.37,10.0,Calm,Calm,-,N/A,,Clear,0,2013-12-27 21:15:00
4:35 PM,51.8,12.2,21,30.36,10.0,Calm,Calm,-,N/A,,Clear,0,2013-12-27 21:35:00
4:55 PM,51.8,14.0,22,30.36,10.0,Calm,Calm,-,N/A,,Clear,0,2013-12-27 21:55:00
5:15 PM,50.0,14.0,24,30.36,10.0,Calm,Calm,-,N/A,,Clear,0,2013-12-27 22:15:00
5:35 PM,50.0,14.0,24,30.37,10.0,Calm,Calm,-,N/A,,Clear,0,2013-12-27 22:35:00
5:55 PM,50.0,14.0,24,30.36,10.0,SSW,3.5,-,N/A,,Clear,200,2013-12-27 22:55:00
6:15 PM,48.2,14.0,25,30.36,10.0,SSW,3.5,-,N/A,,Clear,200,2013-12-27 23:15:00
6:35 PM,46.4,15.8,29,30.37,10.0,Calm,Calm,-,N/A,,Clear,0,2013-12-27 23:35:00
6:55 PM,42.8,21.2,42,30.37,10.0,Calm,Calm,-,N/A,,Clear,0,2013-12-27 23:55:00
7:15 PM,41.0,23.0,49,30.37,10.0,Calm,Calm,-,N/A,,Clear,0,2013-12-28 00:15:00
7:35 PM,42.8,21.2,42,30.37,10.0,Calm,Calm,-,N/A,,Clear,0,2013-12-28 00:35:00
7:55 PM,41.0,23.0,49,30.39,10.0,North,3.5,-,N/A,,Clear,10,2013-12-28 00:55:00
8:15 PM,41.0,23.0,49,30.40,10.0,North,3.5,-,N/A,,Clear,10,2013-12-28 01:15:00
8:35 PM,41.0,23.0,49,30.40,10.0,NNE,3.5,-,N/A,,Clear,20,2013-12-28 01:35:00
8:55 PM,41.0,23.0,49,30.40,10.0,Calm,Calm,-,N/A,,Clear,0,2013-12-28 01:55:00
9:15 PM,37.4,24.8,60,30.40,10.0,Calm,Calm,-,N/A,,Clear,0,2013-12-28 02:15:00
9:35 PM,35.6,24.8,65,30.39,10.0,Calm,Calm,-,N/A,,Clear,0,2013-12-28 02:35:00
9:55 PM,35.6,26.6,70,30.39,10.0,Calm,Calm,-,N/A,,Clear,0,2013-12-28 02:55:00
10:15 PM,33.8,26.6,75,30.40,10.0,NNE,3.5,-,N/A,,Clear,30,2013-12-28 03:15:00
10:35 PM,35.6,24.8,65,30.40,10.0,North,3.5,-,N/A,,Clear,10,2013-12-28 03:35:00
10:55 PM,33.8,26.6,75,30.40,10.0,NE,3.5,-,N/A,,Clear,40,2013-12-28 03:55:00
11:15 PM,33.8,24.8,70,30.40,10.0,Calm,Calm,-,N/A,,Clear,0,2013-12-28 04:15:00
11:35 PM,33.8,26.6,75,30.40,10.0,Calm,Calm,-,N/A,,Clear,0,2013-12-28 04:35:00
11:55 PM,32.0,26.6,80,30.40,10.0,Calm,Calm,-,N/A,,Clear,0,2013-12-28 04:55:00